Time;durP1;ratioP1;P1;durP2;ratioP2;P2;SDS_P1;SDS_P2;PMS_P1;PMS_P2;Temp;Humidity;BMP_temperature;BMP_pressure;BME280_temperature;BME280_humidity;BME280_pressure;Samples;Min_cycle;Max_cycle;Signal;HPM_P1;HPM_P2
2023/11/16 00:01:59;;;;;;;;;;;;;;;14.95;45.82;100336.75;5097351;28;1992;-44
2023/11/16 00:04:26;;;;;;;;;;;;;;;14.63;45.61;100338.91;5096858;28;1054;-42
2023/11/16 00:06:52;;;;;;;;;;;;;;;14.48;45.43;100342.69;5101563;28;1927;-42
2023/11/16 00:09:18;;;;;;;;;;;;;;;14.37;44.63;100346.91;5096860;28;982;-43
2023/11/16 00:11:44;;;;;;;;;;;;;;;14.35;44.29;100353.28;5096464;28;1109;-43
2023/11/16 00:14:10;;;;;;;;;;;;;;;14.23;43.99;100354.97;5096888;28;979;-43
2023/11/16 00:16:37;;;;;;;;;;;;;;;14.11;43.81;100344.28;5096950;28;1133;-44
2023/11/16 00:19:04;;;;;;;;;;;;;;;14.13;43.59;100350.31;5096930;28;1103;-43
2023/11/16 00:21:30;;;;;;;;;;;;;;;14.12;43.62;100348.63;5096644;28;1907;-44
2023/11/16 00:23:57;;;;;;;;;;;;;;;14.77;45.37;100352.97;5095701;28;1054;-44
2023/11/16 00:26:22;;;;;;;;;;;;;;;14.97;45.50;100340.97;5096271;28;1087;-43
2023/11/16 00:28:55;;;;;;;;;;;;;;;14.52;45.48;100336.19;5096671;28;1366;-43
2023/11/16 00:31:21;;;;;;;;;;;;;;;14.62;45.74;100331.09;5129201;27;1109;-41
2023/11/16 00:33:47;;;;;;;;;;;;;;;15.05;45.82;100328.03;5129584;27;1264;-43
2023/11/16 00:36:13;;;;;;;;;;;;;;;14.63;45.95;100322.22;5099418;28;1925;-42
2023/11/16 00:38:38;;;;;;;;;;;;;;;14.52;45.31;100320.31;5115470;28;742;-42
2023/11/16 00:41:06;;;;;;;;;;;;;;;14.45;44.85;100323.41;5096625;28;1974;-40
2023/11/16 00:43:34;;;;;;;;;;;;;;;14.39;44.11;100325.63;5096117;28;1146;-45
2023/11/16 00:46:01;;;;;;;;;;;;;;;14.33;44.07;100324.25;5095744;28;1134;-43
2023/11/16 00:48:26;;;;;;;;;;;;;;;14.27;43.56;100333.47;5095993;28;1451;-39
2023/11/16 00:50:52;;;;;;;;;;;;;;;14.14;43.72;100337.94;5095799;28;1228;-43
2023/11/16 00:53:18;;;;;;;;;;;;;;;15.35;45.43;100351.53;5096126;28;1245;-47
2023/11/16 00:55:43;;;;;;;;;;;;;;;14.98;45.82;100365.66;5096167;28;1062;-42
2023/11/16 00:58:09;;;;;;;;;;;;;;;14.59;45.74;100350.69;5128665;27;1097;-45
2023/11/16 01:00:34;;;;;;;;;;;;;;;14.50;44.83;100351.31;5095938;28;1914;-42
2023/11/16 01:03:03;;;;;;;;;;;;;;;14.40;44.35;100351.13;5096001;28;987;-44
2023/11/16 01:05:29;;;;;;;;;;;;;;;14.30;44.15;100349.16;5095467;28;1035;-44
2023/11/16 01:07:54;;;;;;;;;;;;;;;14.32;44.02;100356.97;5100393;28;2183;-43
2023/11/16 01:10:24;;;;;;;;;;;;;;;14.23;43.50;100370.84;5128102;27;1131;-45
2023/11/16 01:12:52;;;;;;;;;;;;;;;14.66;44.96;100386.34;5095639;28;1061;-48
2023/11/16 01:15:18;;;;;;;;;;;;;;;14.95;45.54;100374.66;5095666;28;1078;-40
2023/11/16 01:17:45;;;;;;;;;;;;;;;14.56;45.56;100370.28;5095689;28;1035;-44
2023/11/16 01:20:18;;;;;;;;;;;;;;;14.39;44.85;100370.63;5095359;28;1918;-47
2023/11/16 01:23:01;;;;;;;;;;;;;;;14.31;44.53;100387.88;5095840;28;983;-42
2023/11/16 01:25:26;;;;;;;;;;;;;;;14.13;44.20;100395.28;5090589;28;884;-41
2023/11/16 01:27:57;;;;;;;;;;;;;;;14.84;45.27;100398.44;5095042;28;1054;-43
2023/11/16 01:30:23;;;;;;;;;;;;;;;14.86;45.49;100400.03;5128636;28;1083;-41
2023/11/16 01:32:49;;;;;;;;;;;;;;;14.59;45.67;100401.00;5094443;28;1003;-41
2023/11/16 01:35:15;;;;;;;;;;;;;;;14.45;45.01;100399.31;5096668;28;1078;-42
2023/11/16 01:37:42;;;;;;;;;;;;;;;14.25;44.57;100398.88;5112459;28;1907;-44
2023/11/16 01:40:08;;;;;;;;;;;;;;;14.28;44.02;100387.25;5098965;28;2225;-43
2023/11/16 01:42:34;;;;;;;;;;;;;;;14.23;43.52;100379.63;5100195;28;1102;-43
2023/11/16 01:45:00;;;;;;;;;;;;;;;15.25;45.09;100381.34;5099736;28;1030;-42
2023/11/16 01:47:25;;;;;;;;;;;;;;;14.86;46.18;100370.91;5099945;28;1069;-43
2023/11/16 01:49:52;;;;;;;;;;;;;;;14.50;45.98;100346.91;5099314;28;840;-40
2023/11/16 01:52:17;;;;;;;;;;;;;;;14.45;44.96;100338.44;5099987;28;1074;-41
2023/11/16 01:54:43;;;;;;;;;;;;;;;14.30;44.54;100346.50;5133022;27;1138;-44
2023/11/16 01:57:09;;;;;;;;;;;;;;;14.36;43.86;100344.38;5099455;28;1058;-45
2023/11/16 01:59:35;;;;;;;;;;;;;;;14.32;43.83;100344.59;5098612;28;1310;-42
2023/11/16 02:02:00;;;;;;;;;;;;;;;14.19;43.79;100349.03;5098363;28;1978;-42
2023/11/16 02:04:26;;;;;;;;;;;;;;;14.16;43.39;100349.25;5132167;27;1226;-42
2023/11/16 02:06:54;;;;;;;;;;;;;;;15.37;45.23;100347.78;5132667;27;1070;-45
2023/11/16 02:09:21;;;;;;;;;;;;;;;14.84;45.86;100340.16;5132218;27;1221;-40
2023/11/16 02:11:46;;;;;;;;;;;;;;;14.53;45.53;100356.44;5099018;28;1171;-45
2023/11/16 02:14:12;;;;;;;;;;;;;;;14.47;44.99;100359.50;5097923;28;1126;-45
2023/11/16 02:16:37;;;;;;;;;;;;;;;14.42;44.32;100362.47;5099978;28;1073;-43
2023/11/16 02:19:22;;;;;;;;;;;;;;;14.34;43.89;100357.72;5131638;27;1026;-45
2023/11/16 02:21:47;;;;;;;;;;;;;;;14.67;44.94;100358.09;5098026;28;1963;-44
2023/11/16 02:24:13;;;;;;;;;;;;;;;15.18;45.83;100356.28;5132033;27;1916;-44
2023/11/16 02:26:40;;;;;;;;;;;;;;;14.70;45.86;100357.88;5097682;28;1221;-41
2023/11/16 02:29:07;;;;;;;;;;;;;;;14.58;45.18;100346.34;5131949;27;1107;-40
2023/11/16 02:31:33;;;;;;;;;;;;;;;14.51;44.87;100338.00;5099230;28;1139;-40
2023/11/16 02:33:58;;;;;;;;;;;;;;;15.01;45.64;100318.63;5098833;28;1145;-42
2023/11/16 02:36:24;;;;;;;;;;;;;;;14.65;45.59;100337.00;5098697;28;1188;-43
2023/11/16 02:38:52;;;;;;;;;;;;;;;14.50;44.92;100351.31;5097527;28;1256;-44
2023/11/16 02:41:17;;;;;;;;;;;;;;;14.42;44.62;100362.47;5131039;27;1917;-42
2023/11/16 02:43:44;;;;;;;;;;;;;;;14.27;44.04;100367.88;5131717;27;1066;-39
2023/11/16 02:46:09;;;;;;;;;;;;;;;14.31;43.60;100374.63;5098437;28;1177;-40
2023/11/16 02:48:35;;;;;;;;;;;;;;;14.66;45.08;100380.22;5098443;28;1087;-41
2023/11/16 02:51:00;;;;;;;;;;;;;;;15.12;45.63;100392.00;5098157;28;1165;-42
2023/11/16 02:53:26;;;;;;;;;;;;;;;14.66;45.49;100404.06;5099529;28;1197;-44
2023/11/16 02:55:51;;;;;;;;;;;;;;;14.58;45.09;100396.63;5130864;27;1348;-43
2023/11/16 02:58:17;;;;;;;;;;;;;;;14.40;44.48;100401.41;5098765;28;1136;-43
2023/11/16 03:00:44;;;;;;;;;;;;;;;14.25;44.34;100406.81;5098348;28;1978;-44
2023/11/16 03:03:09;;;;;;;;;;;;;;;14.29;43.86;100410.97;5080024;28;1095;-44
2023/11/16 03:05:35;;;;;;;;;;;;;;;14.25;43.28;100416.53;5098598;28;1130;-39
2023/11/16 03:08:00;;;;;;;;;;;;;;;15.38;45.40;100425.50;5098743;28;1138;-40
2023/11/16 03:10:28;;;;;;;;;;;;;;;14.84;45.59;100427.56;5130480;27;1148;-44
2023/11/16 03:12:54;;;;;;;;;;;;;;;14.56;45.01;100438.28;5098299;28;1138;-43
2023/11/16 03:15:20;;;;;;;;;;;;;;;14.45;44.48;100437.22;5098326;28;1066;-44
2023/11/16 03:17:45;;;;;;;;;;;;;;;14.42;44.11;100444.50;5098411;28;1162;-44
2023/11/16 03:20:12;;;;;;;;;;;;;;;14.36;43.87;100444.94;5097927;28;1905;-45
2023/11/16 03:22:39;;;;;;;;;;;;;;;14.30;43.83;100462.06;5131252;27;1034;-45
2023/11/16 03:25:06;;;;;;;;;;;;;;;14.24;43.42;100471.28;5130805;27;1066;-44
2023/11/16 03:27:35;;;;;;;;;;;;;;;14.40;44.49;100467.56;5096986;28;1187;-43
2023/11/16 03:30:02;;;;;;;;;;;;;;;14.84;45.45;100462.84;5085016;28;1003;-43
2023/11/16 03:32:29;;;;;;;;;;;;;;;14.54;44.89;100464.84;5097350;28;1019;-44
2023/11/16 03:34:54;;;;;;;;;;;;;;;14.38;44.52;100470.31;5097987;28;1093;-44
2023/11/16 03:37:20;;;;;;;;;;;;;;;14.31;44.02;100480.47;5097795;28;1096;-46
2023/11/16 03:39:45;;;;;;;;;;;;;;;14.18;44.13;100487.56;5097299;28;1090;-45
2023/11/16 03:42:11;;;;;;;;;;;;;;;15.18;44.89;100492.25;5097464;28;1901;-44
2023/11/16 03:44:37;;;;;;;;;;;;;;;14.90;45.15;100485.38;5098156;28;774;-44
2023/11/16 03:47:04;;;;;;;;;;;;;;;14.66;45.24;100488.78;5097566;28;1103;-42
2023/11/16 03:49:29;;;;;;;;;;;;;;;14.46;44.69;100491.00;5097335;28;1070;-38
2023/11/16 03:51:57;;;;;;;;;;;;;;;14.38;44.17;100486.22;5095987;28;1125;-38
2023/11/16 03:54:22;;;;;;;;;;;;;;;14.33;43.87;100490.97;5097601;28;1081;-39
2023/11/16 03:56:50;;;;;;;;;;;;;;;15.03;45.01;100504.75;5097183;28;1023;-39
2023/11/16 03:59:16;;;;;;;;;;;;;;;14.83;45.52;100515.94;5096620;28;1038;-40
2023/11/16 04:01:42;;;;;;;;;;;;;;;14.57;45.11;100517.59;5097052;28;1985;-45
2023/11/16 04:04:10;;;;;;;;;;;;;;;14.50;44.84;100526.88;5129715;27;1062;-43
2023/11/16 04:06:36;;;;;;;;;;;;;;;14.45;44.40;100529.84;5097213;28;1113;-44
2023/11/16 04:09:05;;;;;;;;;;;;;;;14.27;44.45;100533.72;5097484;28;1055;-44
2023/11/16 04:11:31;;;;;;;;;;;;;;;14.29;43.86;100527.38;5095230;28;1603;-42
2023/11/16 04:13:57;;;;;;;;;;;;;;;14.23;43.30;100530.41;5097039;28;847;-42
2023/11/16 04:16:24;;;;;;;;;;;;;;;15.15;45.01;100540.16;5097033;28;1085;-39
2023/11/16 04:18:50;;;;;;;;;;;;;;;14.71;45.03;100547.56;5095790;28;1321;-42
2023/11/16 04:21:18;;;;;;;;;;;;;;;14.45;45.01;100543.06;5097172;28;1898;-46
2023/11/16 04:23:45;;;;;;;;;;;;;;;14.30;44.40;100550.25;5096931;28;1066;-39
2023/11/16 04:26:11;;;;;;;;;;;;;;;14.27;43.91;100557.53;5096830;28;1162;-40
2023/11/16 04:28:36;;;;;;;;;;;;;;;15.20;44.93;100547.78;5096769;28;1097;-45
2023/11/16 04:31:02;;;;;;;;;;;;;;;14.70;45.26;100551.16;5089866;28;1523;-43
2023/11/16 04:33:29;;;;;;;;;;;;;;;14.45;45.11;100556.31;5096447;28;1315;-40
2023/11/16 04:35:56;;;;;;;;;;;;;;;14.36;44.28;100551.66;5096699;28;1118;-41
2023/11/16 04:38:22;;;;;;;;;;;;;;;14.85;45.53;100559.88;5096388;28;1170;-39
2023/11/16 04:40:47;;;;;;;;;;;;;;;14.58;45.35;100571.34;5096296;28;1963;-45
2023/11/16 04:43:15;;;;;;;;;;;;;;;14.39;44.62;100575.25;5096029;28;1097;-44
2023/11/16 04:45:42;;;;;;;;;;;;;;;14.38;44.24;100580.66;5096960;28;1090;-44
2023/11/16 04:48:07;;;;;;;;;;;;;;;14.33;43.70;100579.16;5096136;28;1049;-47
2023/11/16 04:50:33;;;;;;;;;;;;;;;14.35;43.83;100581.69;5089853;28;1300;-38
2023/11/16 04:52:58;;;;;;;;;;;;;;;14.18;43.67;100569.59;5091530;28;1066;-43
2023/11/16 04:55:25;;;;;;;;;;;;;;;14.23;43.62;100562.16;5087490;28;1015;-37
2023/11/16 04:57:51;;;;;;;;;;;;;;;14.02;43.50;100553.84;5081443;28;1281;-37
2023/11/16 05:00:18;;;;;;;;;;;;;;;14.07;43.26;100559.69;5096454;28;1967;-39
2023/11/16 05:02:44;;;;;;;;;;;;;;;13.99;43.47;100564.63;5095434;28;884;-45
2023/11/16 05:05:09;;;;;;;;;;;;;;;15.13;44.04;100568.56;5096188;28;1162;-45
2023/11/16 05:07:35;;;;;;;;;;;;;;;14.57;45.25;100575.81;5096258;28;1069;-45
2023/11/16 05:10:01;;;;;;;;;;;;;;;14.42;44.87;100588.28;5095672;28;1130;-45
2023/11/16 05:12:27;;;;;;;;;;;;;;;14.22;44.95;100588.72;5095992;28;1189;-44
2023/11/16 05:14:55;;;;;;;;;;;;;;;14.14;44.56;100594.53;5095812;28;1146;-35
2023/11/16 05:17:20;;;;;;;;;;;;;;;14.12;44.28;100599.94;5096386;28;1031;-38
2023/11/16 05:19:47;;;;;;;;;;;;;;;14.08;44.09;100601.06;5093594;28;1058;-37
2023/11/16 05:22:13;;;;;;;;;;;;;;;14.43;44.99;100611.13;5089414;28;1909;-38
2023/11/16 05:24:39;;;;;;;;;;;;;;;14.89;45.72;100606.41;5095652;28;1138;-37
2023/11/16 05:27:04;;;;;;;;;;;;;;;14.41;45.78;100610.38;5095701;28;1058;-37
2023/11/16 05:29:31;;;;;;;;;;;;;;;14.23;45.20;100608.97;5096369;28;1073;-39
2023/11/16 05:31:57;;;;;;;;;;;;;;;15.72;43.29;100618.41;5096019;28;1045;-36
2023/11/16 05:34:22;;;;;;;;;;;;;;;16.83;40.84;100613.88;5082830;28;1248;-39
2023/11/16 05:36:48;;;;;;;;;;;;;;;16.96;40.24;100608.50;5076427;28;1536;-41
2023/11/16 05:39:15;;;;;;;;;;;;;;;16.22;42.22;100615.72;5079502;28;1366;-39
2023/11/16 05:41:40;;;;;;;;;;;;;;;16.84;41.29;100626.22;5083239;28;1893;-36
2023/11/16 05:44:07;;;;;;;;;;;;;;;17.10;40.44;100628.69;5089047;28;1065;-37
2023/11/16 05:46:33;;;;;;;;;;;;;;;16.44;41.94;100640.69;5076026;28;1133;-38
2023/11/16 05:48:58;;;;;;;;;;;;;;;16.07;43.20;100638.94;5076685;28;1221;-38
2023/11/16 05:51:24;;;;;;;;;;;;;;;16.96;41.54;100647.50;5088386;28;1061;-39
2023/11/16 05:53:49;;;;;;;;;;;;;;;16.99;41.21;100658.75;5089431;28;1407;-37
2023/11/16 05:56:14;;;;;;;;;;;;;;;16.46;42.63;100664.47;5087994;28;1122;-43
2023/11/16 05:58:42;;;;;;;;;;;;;;;16.24;43.34;100677.50;5082651;28;1394;-38
2023/11/16 06:01:07;;;;;;;;;;;;;;;17.34;41.26;100669.47;5095607;28;1971;-34
2023/11/16 06:03:33;;;;;;;;;;;;;;;16.74;42.46;100676.53;5083253;28;1433;-37
2023/11/16 06:05:58;;;;;;;;;;;;;;;16.33;43.67;100689.25;5083061;28;1300;-35
2023/11/16 06:08:24;;;;;;;;;;;;;;;17.32;41.63;100682.88;5084619;28;1122;-36
2023/11/16 06:10:51;;;;;;;;;;;;;;;16.92;42.50;100686.75;5092038;28;1469;-35
2023/11/16 06:13:22;;;;;;;;;;;;;;;16.49;43.31;100693.44;5082063;28;1389;-36
2023/11/16 06:15:47;;;;;;;;;;;;;;;16.65;43.22;100694.00;5095181;28;857;-38
2023/11/16 06:18:13;;;;;;;;;;;;;;;17.31;41.67;100691.81;5094047;28;1176;-35
2023/11/16 06:20:38;;;;;;;;;;;;;;;16.71;43.11;100703.34;5086753;28;1902;-34
2023/11/16 06:23:04;;;;;;;;;;;;;;;17.04;42.79;100703.56;5090110;28;1283;-34
2023/11/16 06:25:29;;;;;;;;;;;;;;;17.34;41.98;100714.66;5085490;28;1479;-35
2023/11/16 06:27:55;;;;;;;;;;;;;;;16.81;43.08;100713.28;5086050;28;1157;-37
2023/11/16 06:30:20;;;;;;;;;;;;;;;16.52;44.04;100717.13;5092133;28;1378;-36
2023/11/16 06:32:47;;;;;;;;;;;;;;;17.38;42.39;100713.47;5083825;28;1465;-34
2023/11/16 06:35:13;;;;;;;;;;;;;;;16.93;43.27;100712.38;5081500;28;1165;-36
2023/11/16 06:37:39;;;;;;;;;;;;;;;16.54;44.12;100715.19;5081286;28;1473;-35
2023/11/16 06:40:05;;;;;;;;;;;;;;;16.75;43.97;100714.56;5082486;28;1438;-35
2023/11/16 06:42:31;;;;;;;;;;;;;;;17.23;42.74;100711.00;5078204;28;1965;-34
2023/11/16 06:44:58;;;;;;;;;;;;;;;16.72;43.87;100720.09;5081317;28;1157;-36
2023/11/16 06:47:23;;;;;;;;;;;;;;;16.50;44.46;100721.69;5079694;28;1347;-35
2023/11/16 06:49:49;;;;;;;;;;;;;;;16.26;44.99;100718.06;5083944;28;1184;-35
2023/11/16 06:52:14;;;;;;;;;;;;;;;16.67;44.38;100717.78;5082602;28;1366;-35
2023/11/16 06:54:42;;;;;;;;;;;;;;;17.30;42.81;100718.53;5081188;28;1164;-36
2023/11/16 06:57:09;;;;;;;;;;;;;;;16.73;43.88;100724.47;5078836;28;1462;-35
2023/11/16 06:59:34;;;;;;;;;;;;;;;17.08;43.47;100728.94;5081111;28;1109;-36
2023/11/16 07:02:00;;;;;;;;;;;;;;;17.33;42.89;100732.41;5082777;28;1974;-36
2023/11/16 07:04:26;;;;;;;;;;;;;;;16.80;44.20;100740.81;5083704;28;1449;-36
2023/11/16 07:06:52;;;;;;;;;;;;;;;16.54;44.61;100749.72;5082867;28;1302;-34
2023/11/16 07:09:19;;;;;;;;;;;;;;;16.68;44.54;100750.53;5081587;28;1244;-36
2023/11/16 07:11:46;;;;;;;;;;;;;;;17.41;42.71;100754.91;5082306;28;1437;-37
2023/11/16 07:14:12;;;;;;;;;;;;;;;16.76;44.30;100764.09;5080896;28;1380;-35
2023/11/16 07:16:38;;;;;;;;;;;;;;;16.56;44.47;100763.75;5089680;28;1248;-36
2023/11/16 07:19:04;;;;;;;;;;;;;;;16.83;44.55;100762.66;5080243;28;1390;-35
2023/11/16 07:21:31;;;;;;;;;;;;;;;17.40;43.16;100770.03;5082635;28;1906;-35
2023/11/16 07:23:56;;;;;;;;;;;;;;;17.04;43.74;100771.81;5080925;28;1426;-34
2023/11/16 07:26:23;;;;;;;;;;;;;;;16.63;44.79;100788.88;5082283;28;1422;-36
2023/11/16 07:28:49;;;;;;;;;;;;;;;16.59;45.07;100790.09;5082894;28;1232;-35
2023/11/16 07:31:19;;;;;;;;;;;;;;;17.62;42.63;100785.19;5080648;28;1263;-37
2023/11/16 07:33:51;;;;;;;;;;;;;;;16.99;44.09;100796.06;5081793;28;1594;-35
2023/11/16 07:36:26;;;;;;;;;;;;;;;16.63;44.92;100804.81;5086377;28;1267;-37
2023/11/16 07:38:52;;;;;;;;;;;;;;;17.35;43.66;100799.63;5088498;28;1314;-35
2023/11/16 07:41:18;;;;;;;;;;;;;;;17.14;43.92;100802.09;5083139;28;1993;-36
2023/11/16 07:43:44;;;;;;;;;;;;;;;16.72;44.76;100808.63;5089007;28;1360;-36
2023/11/16 07:46:09;;;;;;;;;;;;;;;17.57;42.97;100805.97;5078206;28;1063;-35
2023/11/16 07:48:35;;;;;;;;;;;;;;;17.02;44.21;100815.31;5077357;28;1078;-35
2023/11/16 07:51:01;;;;;;;;;;;;;;;16.70;44.99;100821.16;5082494;28;1032;-34
2023/11/16 07:53:27;;;;;;;;;;;;;;;16.49;45.31;100821.75;5097371;28;1351;-35
2023/11/16 07:55:54;;;;;;;;;;;;;;;16.91;44.71;100823.22;5083303;28;1103;-37
2023/11/16 07:58:22;;;;;;;;;;;;;;;17.49;43.25;100832.31;5092854;28;1561;-35
2023/11/16 08:01:03;;;;;;;;;;;;;;;16.83;44.78;100837.06;5095648;28;1978;-36
2023/11/16 08:03:44;;;;;;;;;;;;;;;16.56;45.45;100839.91;5095492;28;915;-35
2023/11/16 08:06:13;;;;;;;;;;;;;;;16.39;46.13;100841.97;5083189;28;1316;-35
2023/11/16 08:08:49;;;;;;;;;;;;;;;16.45;45.91;100846.00;5085508;28;2394;-35
2023/11/16 08:11:15;;;;;;;;;;;;;;;17.44;43.58;100840.63;5093378;28;1168;-35
2023/11/16 08:13:41;;;;;;;;;;;;;;;16.79;45.04;100837.38;5082504;28;1138;-35
2023/11/16 08:16:10;;;;;;;;;;;;;;;16.52;45.60;100839.28;5089503;28;1078;-36
2023/11/16 08:18:38;;;;;;;;;;;;;;;17.38;44.27;100825.97;5094012;28;1150;-35
2023/11/16 08:21:07;;;;;;;;;;;;;;;17.02;44.73;100831.25;5085727;28;1905;-36
2023/11/16 08:23:38;;;;;;;;;;;;;;;16.67;45.66;100820.53;5089898;28;1188;-35
2023/11/16 08:26:05;;;;;;;;;;;;;;;16.50;45.93;100830.56;5078370;28;1089;-37
2023/11/16 08:28:31;;;;;;;;;;;;;;;17.07;44.96;100832.72;5092295;28;1157;-35
2023/11/16 08:30:58;;;;;;;;;;;;;;;17.20;44.33;100828.22;5090845;28;1578;-34
2023/11/16 08:33:25;;;;;;;;;;;;;;;16.78;45.46;100831.25;5077943;28;1303;-35
2023/11/16 08:35:51;;;;;;;;;;;;;;;17.11;44.89;100836.88;5078764;28;1137;-36
2023/11/16 08:38:17;;;;;;;;;;;;;;;17.33;44.30;100827.31;5085451;28;1086;-36
2023/11/16 08:40:43;;;;;;;;;;;;;;;16.84;45.48;100835.25;5096474;28;1973;-36
2023/11/16 08:43:11;;;;;;;;;;;;;;;16.63;46.03;100841.19;5129876;27;1083;-34
2023/11/16 08:45:37;;;;;;;;;;;;;;;16.48;46.47;100835.16;5096424;28;1204;-36
2023/11/16 08:48:03;;;;;;;;;;;;;;;17.35;44.74;100831.53;5094216;28;1157;-37
2023/11/16 08:50:29;;;;;;;;;;;;;;;17.19;44.57;100831.84;5077173;28;1299;-36
2023/11/16 08:52:57;;;;;;;;;;;;;;;17.30;44.71;100832.88;5083469;28;1447;-35
2023/11/16 08:55:22;;;;;;;;;;;;;;;16.84;45.30;100836.09;5096423;28;1110;-36
2023/11/16 08:57:48;;;;;;;;;;;;;;;17.58;44.14;100833.44;5083188;28;1234;-37
2023/11/16 09:02:59;;;;;;;;;;;;;;;16.81;45.67;100840.78;5087423;28;1014;-35
2023/11/16 09:05:25;;;;;;;;;;;;;;;16.59;46.44;100832.56;5096326;28;976;-36
2023/11/16 09:07:51;;;;;;;;;;;;;;;17.54;44.33;100826.63;5094828;28;1138;-36
2023/11/16 09:10:19;;;;;;;;;;;;;;;17.01;45.50;100840.19;5089949;28;1153;-39
2023/11/16 09:12:45;;;;;;;;;;;;;;;16.69;46.36;100826.59;5081763;28;1766;-36
2023/11/16 09:15:11;;;;;;;;;;;;;;;16.48;46.39;100816.56;5093893;28;1070;-37
2023/11/16 09:17:37;;;;;;;;;;;;;;;16.52;46.66;100833.97;5093764;28;1098;-38
2023/11/16 09:20:05;;;;;;;;;;;;;;;17.34;44.70;100824.53;5080542;28;1058;-45
2023/11/16 09:22:33;;;;;;;;;;;;;;;16.77;46.01;100825.06;5084153;28;1909;-44
2023/11/16 09:25:06;;;;;;;;;;;;;;;16.55;46.74;100827.59;5082632;28;1217;-35
2023/11/16 09:27:33;;;;;;;;;;;;;;;17.00;45.67;100824.34;5091008;28;1320;-36
2023/11/16 09:29:58;;;;;;;;;;;;;;;17.32;44.76;100821.13;5095970;28;1062;-36
2023/11/16 09:32:27;;;;;;;;;;;;;;;16.84;45.99;100824.63;5095802;28;1046;-36
2023/11/16 09:34:53;;;;;;;;;;;;;;;16.57;46.66;100823.84;5095980;28;1081;-36
2023/11/16 09:37:19;;;;;;;;;;;;;;;16.47;46.53;100825.47;5093205;28;1245;-37
2023/11/16 09:39:44;;;;;;;;;;;;;;;17.42;44.93;100820.44;5095954;28;1138;-35
2023/11/16 09:42:13;;;;;;;;;;;;;;;17.49;44.67;100821.66;5093843;28;1916;-36
2023/11/16 09:44:44;;;;;;;;;;;;;;;16.99;45.74;100809.38;5095248;28;2191;-38
2023/11/16 09:47:13;;;;;;;;;;;;;;;16.72;46.40;100813.94;5100836;28;2123;-36
2023/11/16 09:49:41;;;;;;;;;;;;;;;17.53;44.83;100817.81;5096990;28;2083;-37
2023/11/16 09:52:07;;;;;;;;;;;;;;;16.98;45.92;100821.78;5093848;28;2018;-37
2023/11/16 09:54:34;;;;;;;;;;;;;;;16.73;46.59;100825.41;5097066;28;1836;-36
2023/11/16 09:57:00;;;;;;;;;;;;;;;16.51;47.00;100817.19;5096555;28;1086;-35
2023/11/16 09:59:34;;;;;;;;;;;;;;;16.36;47.14;100810.31;5099854;28;1007;-36
2023/11/16 10:02:09;;;;;;;;;;;;;;;16.77;46.70;100806.47;5084184;28;1910;-36
2023/11/16 10:04:41;;;;;;;;;;;;;;;17.55;44.58;100807.91;5116027;27;1319;-37
2023/11/16 10:07:15;;;;;;;;;;;;;;;16.92;46.01;100808.09;5092645;28;1486;-36
2023/11/16 10:09:41;;;;;;;;;;;;;;;16.61;46.65;100808.56;5099235;28;1105;-37
2023/11/16 10:12:07;;;;;;;;;;;;;;;16.48;47.22;100817.38;5099053;28;1214;-36
2023/11/16 10:14:40;;;;;;;;;;;;;;;17.40;45.15;100801.09;5079719;28;1070;-37
2023/11/16 10:17:06;;;;;;;;;;;;;;;17.12;45.48;100799.56;5072844;28;1277;-38
2023/11/16 10:19:31;;;;;;;;;;;;;;;16.71;46.52;100812.25;5060920;28;1717;-37
2023/11/16 10:22:01;;;;;;;;;;;;;;;16.55;47.07;100815.16;5076945;28;1980;-40
2023/11/16 10:24:26;;;;;;;;;;;;;;;16.38;47.33;100808.41;5077054;28;2380;-36
2023/11/16 10:26:54;;;;;;;;;;;;;;;17.29;45.43;100809.88;5058492;28;1027;-37
2023/11/16 10:29:20;;;;;;;;;;;;;;;17.16;45.41;100800.19;5077067;28;1114;-36
2023/11/16 10:31:46;;;;;;;;;;;;;;;16.74;46.59;100798.75;5064592;28;1484;-41
2023/11/16 10:34:13;;;;;;;;;;;;;;;16.53;47.15;100793.19;5082122;28;1176;-38
2023/11/16 10:36:39;;;;;;;;;;;;;;;16.44;47.50;100801.78;5083380;28;1501;-36
2023/11/16 10:39:11;;;;;;;;;;;;;;;17.59;44.88;100788.09;5071306;28;1246;-38
2023/11/16 10:41:37;;;;;;;;;;;;;;;17.02;45.74;100786.06;5078636;28;1973;-38
2023/11/16 10:44:03;;;;;;;;;;;;;;;16.72;46.53;100786.50;5075620;28;1213;-37
2023/11/16 10:46:29;;;;;;;;;;;;;;;16.63;47.17;100788.06;5076733;28;1355;-39
2023/11/16 10:48:55;;;;;;;;;;;;;;;17.21;45.26;100784.72;5086431;28;1375;-39
2023/11/16 10:51:21;;;;;;;;;;;;;;;16.73;46.43;100782.91;5086875;28;1130;-38
2023/11/16 10:53:48;;;;;;;;;;;;;;;16.52;46.92;100779.06;5081153;28;1851;-38
2023/11/16 10:56:13;;;;;;;;;;;;;;;16.38;47.24;100788.00;5105806;28;1145;-37
2023/11/16 10:58:39;;;;;;;;;;;;;;;16.87;46.31;100781.88;5066751;28;1176;-39
2023/11/16 11:01:10;;;;;;;;;;;;;;;17.27;45.21;100774.59;5086370;28;1910;-39
2023/11/16 11:03:35;;;;;;;;;;;;;;;16.82;46.06;100782.22;5068493;28;1288;-38
2023/11/16 11:06:03;;;;;;;;;;;;;;;16.63;46.91;100788.06;5082382;28;840;-39
2023/11/16 11:08:40;;;;;;;;;;;;;;;17.50;44.64;100781.66;5077371;28;1150;-38
2023/11/16 11:11:07;;;;;;;;;;;;;;;16.95;46.04;100790.13;5084276;28;1094;-38
2023/11/16 11:13:33;;;;;;;;;;;;;;;16.64;46.77;100789.75;5130480;27;1089;-38
2023/11/16 11:16:05;;;;;;;;;;;;;;;17.19;45.60;100786.66;5097859;28;1097;-38
2023/11/16 11:18:31;;;;;;;;;;;;;;;17.22;45.26;100806.81;5097850;28;914;-36
2023/11/16 11:21:07;;;;;;;;;;;;;;;16.86;46.18;100802.31;5096270;28;2037;-38
2023/11/16 11:23:33;;;;;;;;;;;;;;;16.57;46.89;100804.41;5086223;28;1926;-38
2023/11/16 11:26:03;;;;;;;;;;;;;;;16.45;46.82;100801.69;5088924;28;1127;-44
2023/11/16 11:28:29;;;;;;;;;;;;;;;16.76;46.50;100803.94;5091173;28;1117;-40
2023/11/16 11:30:55;;;;;;;;;;;;;;;17.20;45.43;100801.63;5096244;28;1420;-41
2023/11/16 11:33:25;;;;;;;;;;;;;;;16.70;46.25;100813.19;5092156;28;1155;-43
2023/11/16 11:35:52;;;;;;;;;;;;;;;16.50;46.80;100811.97;5092754;28;1055;-40
2023/11/16 11:38:18;;;;;;;;;;;;;;;16.40;47.28;100815.28;5085785;28;1379;-42
2023/11/16 11:40:46;;;;;;;;;;;;;;;17.49;44.84;100811.03;5096980;28;1910;-40
2023/11/16 11:43:38;;;;;;;;;;;;;;;16.99;45.81;100810.22;5084031;28;1066;-39
2023/11/16 11:46:08;;;;;;;;;;;;;;;16.55;46.62;100823.13;5095327;28;1856;-36
2023/11/16 11:48:34;;;;;;;;;;;;;;;16.43;46.91;100824.88;5097299;28;1030;-36
2023/11/16 11:50:59;;;;;;;;;;;;;;;16.38;47.31;100825.16;5096659;28;1030;-36
2023/11/16 11:53:29;;;;;;;;;;;;;;;17.45;44.86;100829.03;5095369;28;2261;-39
2023/11/16 11:55:57;;;;;;;;;;;;;;;16.88;45.85;100834.09;5096691;28;1184;-39
2023/11/16 11:58:25;;;;;;;;;;;;;;;16.60;46.72;100836.09;5108932;28;1038;-36
2023/11/16 12:00:51;;;;;;;;;;;;;;;16.43;46.89;100835.50;5098966;28;1965;-39
2023/11/16 12:03:20;;;;;;;;;;;;;;;17.12;45.87;100849.19;5097146;28;1099;-37
2023/11/16 12:05:53;;;;;;;;;;;;;;;17.02;45.65;100843.69;5096987;28;1034;-37
2023/11/16 12:08:18;;;;;;;;;;;;;;;16.66;46.51;100848.91;5096615;28;1049;-36
2023/11/16 12:10:44;;;;;;;;;;;;;;;16.44;47.08;100853.09;5090896;28;1145;-37
2023/11/16 12:13:10;;;;;;;;;;;;;;;17.04;45.77;100854.19;5087265;28;1113;-37
2023/11/16 12:15:35;;;;;;;;;;;;;;;17.42;44.73;100847.88;5092518;28;1066;-42
2023/11/16 12:18:10;;;;;;;;;;;;;;;16.80;46.12;100849.72;5086491;28;902;-41
2023/11/16 12:20:40;;;;;;;;;;;;;;;16.57;46.97;100857.53;5077705;28;1977;-43
2023/11/16 12:23:06;;;;;;;;;;;;;;;17.48;44.55;100862.53;5089154;28;1014;-36
2023/11/16 12:25:34;;;;;;;;;;;;;;;17.31;44.98;100854.00;5082812;28;1780;-36
2023/11/16 12:27:59;;;;;;;;;;;;;;;16.85;46.09;100859.06;5096452;28;1058;-36
2023/11/16 12:30:25;;;;;;;;;;;;;;;16.56;46.67;100856.69;5095515;28;1109;-37
2023/11/16 12:32:50;;;;;;;;;;;;;;;16.82;45.76;100859.28;5083552;28;1142;-34
2023/11/16 12:35:16;;;;;;;;;;;;;;;17.28;45.50;100862.22;5095596;28;1091;-35
2023/11/16 12:37:42;;;;;;;;;;;;;;;17.15;45.49;100858.78;5080780;28;1366;-35
2023/11/16 12:40:18;;;;;;;;;;;;;;;16.72;46.50;100859.09;5084611;28;1383;-36
2023/11/16 12:42:44;;;;;;;;;;;;;;;17.50;44.96;100856.13;5094228;28;1910;-35
2023/11/16 12:45:10;;;;;;;;;;;;;;;18.23;43.32;100849.75;5096414;28;1030;-35
2023/11/16 12:47:37;;;;;;;;;;;;;;;18.37;42.88;100855.81;5084702;28;982;-36
2023/11/16 12:50:05;;;;;;;;;;;;;;;18.03;43.70;100845.97;5088512;28;1181;-35